Aeroporto :
LOGIN :

Iscrizione | Disclaimer

   EN    FR    IT 

 










Sommario :    VFR   VFR Marginale   IFR   IFR Intensivo   IFR Molto Intensivo
Visibilità : 
Base nubi : 
>= 8 km
>= 3000ft
5 / 8 km
1000 / 3000 ft
1500m / 5 km
500 / 1000 ft
800 / 1500m
200 / 500 ft
< 800m
< 200 ft
Simboli :   Temporali  Nebbia  Neve Forte  Precipitazioni Forti  Vento > 20 kt
SIGMETs :   Varie  Temporali  Ghiacco  Turbolenza  Onda orograficha  Ceneri Vulcaniche







- Altitudine del aeroporto : 23 ft
- Codice IATA : XFW


EDHI - Hamburg Finkenwerder

ULTIMO METAR :
  • 231920Z AUTO 31009KT 9999 // FEW052/// OVC150/// 11/07 Q1012

METARs OBSOLETI :
  • 231850Z AUTO 30007KT 9999 // BKN150/// OVC180/// 10/09 Q1012
  • 231820Z AUTO 31008KT 280V340 9999 // BKN150/// OVC170/// 11/09 Q1011
  • 231750Z AUTO 30008KT 270V330 9999 // FEW088/// BKN120/// OVC150/// 11/09 Q1010
  • 231720Z AUTO 29007KT 9999 // FEW061/// SCT100/// OVC120/// 11/10 Q1010
  • 231650Z AUTO 31006KT 280V340 9999 // FEW050/// BKN092/// OVC110/// 11/09 Q1010

Previsioni scadute.
Nessun NOTAM noto per questo aeroporto.
2 SIGMETs conosciuti per la FIR Bremen (EDWW) :
 
Forte formazione di ghiaccio
EDWW SIGMET 3 VALID 231927/232200 EDZH
EDWW BREMEN FIR SEV ICE OBS S OF N5240 AND E OF E01205 FL070/230 MOV ESE NC=
Turbolenza severa
EDWW SIGMET 2 VALID 231730/232130 EDZH
EDWW BREMEN FIR SEV TURB FCST SE OF LINE N5202 E00856 - N5243 E01445 FL150/245 MOV E WKN=



MetMap, La meteo Aeronautica in un colpo d'occhio ! - Copyright ORBIFLY Dicembre 2007 - Disclaimer

ORBIFLY MET'MAP TEAM :

Programmazione e sviluppo : Alexandra Zaïnal
Concezione e sviluppo : Baudouin d'Aumeries
Co-Programmazione e sviluppo : Marc-Olivier Méhu
Supporto tecnico e logistico : Manuel Goepfert
Aiuto per la traduzione : Arnaldo La Scala

Contatto : metmap@orbifly.com




FONTI E CREDITI :

   NOAA